sensor_id;sensor_type;location;lat;lon;timestamp;P1;durP1;ratioP1;P2;durP2;ratioP2
13461;SDS011;6803;45.264;5.468;2023-04-15T00:02:16;9.37;;;7.10;;
13461;SDS011;6803;45.264;5.468;2023-04-15T00:04:51;12.40;;;7.13;;
13461;SDS011;6803;45.264;5.468;2023-04-15T00:07:22;11.33;;;7.10;;
13461;SDS011;6803;45.264;5.468;2023-04-15T00:09:53;10.90;;;7.23;;
13461;SDS011;6803;45.264;5.468;2023-04-15T00:12:24;7.83;;;6.40;;
13461;SDS011;6803;45.264;5.468;2023-04-15T00:14:56;10.57;;;7.53;;
13461;SDS011;6803;45.264;5.468;2023-04-15T00:17:27;8.83;;;7.07;;
13461;SDS011;6803;45.264;5.468;2023-04-15T00:19:58;8.23;;;6.87;;
13461;SDS011;6803;45.264;5.468;2023-04-15T00:22:30;9.03;;;7.60;;
13461;SDS011;6803;45.264;5.468;2023-04-15T00:25:01;12.10;;;7.77;;
13461;SDS011;6803;45.264;5.468;2023-04-15T00:27:33;10.53;;;7.90;;
13461;SDS011;6803;45.264;5.468;2023-04-15T00:30:05;12.63;;;8.33;;
13461;SDS011;6803;45.264;5.468;2023-04-15T00:32:37;9.97;;;7.37;;
13461;SDS011;6803;45.264;5.468;2023-04-15T00:35:09;9.53;;;7.53;;
13461;SDS011;6803;45.264;5.468;2023-04-15T00:37:39;10.10;;;8.27;;
13461;SDS011;6803;45.264;5.468;2023-04-15T00:40:12;13.57;;;9.47;;
13461;SDS011;6803;45.264;5.468;2023-04-15T00:42:45;10.83;;;8.60;;
13461;SDS011;6803;45.264;5.468;2023-04-15T00:45:15;12.60;;;9.00;;
13461;SDS011;6803;45.264;5.468;2023-04-15T00:47:47;13.43;;;9.20;;
13461;SDS011;6803;45.264;5.468;2023-04-15T00:50:19;11.70;;;9.13;;
13461;SDS011;6803;45.264;5.468;2023-04-15T00:52:50;11.43;;;8.70;;
13461;SDS011;6803;45.264;5.468;2023-04-15T00:55:21;10.83;;;8.43;;
13461;SDS011;6803;45.264;5.468;2023-04-15T00:57:52;11.93;;;8.97;;
13461;SDS011;6803;45.264;5.468;2023-04-15T01:00:24;10.43;;;9.03;;
13461;SDS011;6803;45.264;5.468;2023-04-15T01:02:56;9.43;;;7.77;;
13461;SDS011;6803;45.264;5.468;2023-04-15T01:05:27;8.60;;;7.70;;
13461;SDS011;6803;45.264;5.468;2023-04-15T01:08:00;10.33;;;7.87;;
13461;SDS011;6803;45.264;5.468;2023-04-15T01:10:31;12.63;;;9.10;;
13461;SDS011;6803;45.264;5.468;2023-04-15T01:13:03;8.47;;;7.63;;
13461;SDS011;6803;45.264;5.468;2023-04-15T01:15:34;8.50;;;7.57;;
13461;SDS011;6803;45.264;5.468;2023-04-15T01:18:06;9.03;;;7.57;;
13461;SDS011;6803;45.264;5.468;2023-04-15T01:20:37;9.63;;;7.80;;
13461;SDS011;6803;45.264;5.468;2023-04-15T01:23:09;10.83;;;7.90;;
13461;SDS011;6803;45.264;5.468;2023-04-15T01:25:40;23.20;;;8.43;;
13461;SDS011;6803;45.264;5.468;2023-04-15T01:28:11;28.37;;;8.53;;
13461;SDS011;6803;45.264;5.468;2023-04-15T01:30:43;9.87;;;8.03;;
13461;SDS011;6803;45.264;5.468;2023-04-15T01:33:14;10.00;;;7.80;;
13461;SDS011;6803;45.264;5.468;2023-04-15T01:35:44;10.77;;;8.17;;
13461;SDS011;6803;45.264;5.468;2023-04-15T01:38:15;10.10;;;8.60;;
13461;SDS011;6803;45.264;5.468;2023-04-15T01:40:46;10.53;;;8.57;;
13461;SDS011;6803;45.264;5.468;2023-04-15T01:43:16;13.40;;;8.57;;
13461;SDS011;6803;45.264;5.468;2023-04-15T01:45:47;14.33;;;7.90;;
13461;SDS011;6803;45.264;5.468;2023-04-15T01:48:18;8.97;;;7.93;;
13461;SDS011;6803;45.264;5.468;2023-04-15T01:50:48;11.03;;;8.60;;
13461;SDS011;6803;45.264;5.468;2023-04-15T01:53:20;12.40;;;7.47;;
13461;SDS011;6803;45.264;5.468;2023-04-15T01:55:51;8.93;;;7.70;;
13461;SDS011;6803;45.264;5.468;2023-04-15T01:58:22;11.17;;;7.10;;
13461;SDS011;6803;45.264;5.468;2023-04-15T02:00:55;9.93;;;7.20;;
13461;SDS011;6803;45.264;5.468;2023-04-15T02:03:27;9.73;;;7.13;;
13461;SDS011;6803;45.264;5.468;2023-04-15T02:05:58;9.60;;;7.60;;
13461;SDS011;6803;45.264;5.468;2023-04-15T02:08:29;9.87;;;7.50;;
13461;SDS011;6803;45.264;5.468;2023-04-15T02:11:00;7.90;;;7.10;;
13461;SDS011;6803;45.264;5.468;2023-04-15T02:13:31;8.13;;;6.80;;
13461;SDS011;6803;45.264;5.468;2023-04-15T02:16:01;8.00;;;6.67;;
13461;SDS011;6803;45.264;5.468;2023-04-15T02:18:34;9.60;;;6.90;;
13461;SDS011;6803;45.264;5.468;2023-04-15T02:21:05;7.47;;;6.33;;
13461;SDS011;6803;45.264;5.468;2023-04-15T02:23:36;9.17;;;6.67;;
13461;SDS011;6803;45.264;5.468;2023-04-15T02:26:06;8.53;;;6.77;;
13461;SDS011;6803;45.264;5.468;2023-04-15T02:28:37;7.83;;;6.87;;
13461;SDS011;6803;45.264;5.468;2023-04-15T02:31:08;8.87;;;7.77;;
13461;SDS011;6803;45.264;5.468;2023-04-15T02:33:38;9.00;;;7.77;;
13461;SDS011;6803;45.264;5.468;2023-04-15T02:36:09;9.23;;;7.63;;
13461;SDS011;6803;45.264;5.468;2023-04-15T02:38:40;48.73;;;11.07;;
13461;SDS011;6803;45.264;5.468;2023-04-15T02:41:11;27.37;;;9.27;;
13461;SDS011;6803;45.264;5.468;2023-04-15T02:43:41;16.03;;;8.60;;
13461;SDS011;6803;45.264;5.468;2023-04-15T02:46:12;22.97;;;8.47;;
13461;SDS011;6803;45.264;5.468;2023-04-15T02:48:43;19.70;;;8.53;;
13461;SDS011;6803;45.264;5.468;2023-04-15T02:51:14;10.43;;;8.67;;
13461;SDS011;6803;45.264;5.468;2023-04-15T02:53:47;11.47;;;8.87;;
13461;SDS011;6803;45.264;5.468;2023-04-15T02:56:18;18.67;;;9.63;;
13461;SDS011;6803;45.264;5.468;2023-04-15T02:58:50;23.63;;;10.07;;
13461;SDS011;6803;45.264;5.468;2023-04-15T03:01:22;20.13;;;9.20;;
13461;SDS011;6803;45.264;5.468;2023-04-15T03:03:54;12.67;;;9.80;;
13461;SDS011;6803;45.264;5.468;2023-04-15T03:06:25;18.03;;;10.13;;
13461;SDS011;6803;45.264;5.468;2023-04-15T03:08:55;16.53;;;9.30;;
13461;SDS011;6803;45.264;5.468;2023-04-15T03:11:27;11.67;;;9.07;;
13461;SDS011;6803;45.264;5.468;2023-04-15T03:13:58;10.00;;;8.10;;
13461;SDS011;6803;45.264;5.468;2023-04-15T03:16:29;12.70;;;9.10;;
13461;SDS011;6803;45.264;5.468;2023-04-15T03:18:59;10.73;;;7.87;;
13461;SDS011;6803;45.264;5.468;2023-04-15T03:21:31;10.67;;;8.37;;
13461;SDS011;6803;45.264;5.468;2023-04-15T03:24:02;12.97;;;9.40;;
13461;SDS011;6803;45.264;5.468;2023-04-15T03:26:33;13.53;;;8.70;;
13461;SDS011;6803;45.264;5.468;2023-04-15T03:29:04;13.63;;;8.60;;
13461;SDS011;6803;45.264;5.468;2023-04-15T03:31:35;13.43;;;9.33;;
13461;SDS011;6803;45.264;5.468;2023-04-15T03:34:07;135.87;;;12.43;;
13461;SDS011;6803;45.264;5.468;2023-04-15T03:36:38;259.67;;;19.23;;
13461;SDS011;6803;45.264;5.468;2023-04-15T03:39:09;53.90;;;11.57;;
13461;SDS011;6803;45.264;5.468;2023-04-15T03:41:40;48.97;;;10.13;;
13461;SDS011;6803;45.264;5.468;2023-04-15T03:44:11;24.23;;;9.63;;
13461;SDS011;6803;45.264;5.468;2023-04-15T03:46:42;13.33;;;9.20;;
13461;SDS011;6803;45.264;5.468;2023-04-15T03:49:13;12.70;;;9.23;;
13461;SDS011;6803;45.264;5.468;2023-04-15T03:51:44;12.93;;;8.40;;
13461;SDS011;6803;45.264;5.468;2023-04-15T03:54:15;11.50;;;8.17;;
13461;SDS011;6803;45.264;5.468;2023-04-15T03:56:46;9.90;;;7.77;;
13461;SDS011;6803;45.264;5.468;2023-04-15T03:59:17;11.60;;;7.97;;
13461;SDS011;6803;45.264;5.468;2023-04-15T04:01:48;11.83;;;7.77;;
13461;SDS011;6803;45.264;5.468;2023-04-15T04:04:20;11.93;;;7.37;;
13461;SDS011;6803;45.264;5.468;2023-04-15T04:06:51;9.73;;;7.53;;
13461;SDS011;6803;45.264;5.468;2023-04-15T04:09:22;11.00;;;7.70;;
13461;SDS011;6803;45.264;5.468;2023-04-15T04:11:53;13.27;;;8.43;;
13461;SDS011;6803;45.264;5.468;2023-04-15T04:14:24;11.00;;;8.27;;
13461;SDS011;6803;45.264;5.468;2023-04-15T04:16:57;13.90;;;8.70;;
13461;SDS011;6803;45.264;5.468;2023-04-15T04:19:28;12.63;;;8.77;;
13461;SDS011;6803;45.264;5.468;2023-04-15T04:21:59;13.07;;;8.37;;
13461;SDS011;6803;45.264;5.468;2023-04-15T04:24:30;11.03;;;8.30;;
13461;SDS011;6803;45.264;5.468;2023-04-15T04:27:01;11.23;;;8.13;;
13461;SDS011;6803;45.264;5.468;2023-04-15T04:29:32;13.03;;;8.73;;
13461;SDS011;6803;45.264;5.468;2023-04-15T04:32:03;11.50;;;7.83;;
13461;SDS011;6803;45.264;5.468;2023-04-15T04:34:41;11.07;;;7.63;;
13461;SDS011;6803;45.264;5.468;2023-04-15T04:37:12;10.13;;;7.70;;
13461;SDS011;6803;45.264;5.468;2023-04-15T04:39:44;9.30;;;7.50;;
13461;SDS011;6803;45.264;5.468;2023-04-15T04:42:15;10.67;;;7.37;;
13461;SDS011;6803;45.264;5.468;2023-04-15T04:44:46;10.23;;;7.47;;
13461;SDS011;6803;45.264;5.468;2023-04-15T04:47:17;9.83;;;6.63;;
13461;SDS011;6803;45.264;5.468;2023-04-15T04:49:48;10.30;;;7.10;;
13461;SDS011;6803;45.264;5.468;2023-04-15T04:52:18;8.93;;;7.28;;
13461;SDS011;6803;45.264;5.468;2023-04-15T04:54:49;8.30;;;6.37;;
13461;SDS011;6803;45.264;5.468;2023-04-15T04:57:20;8.77;;;6.77;;
13461;SDS011;6803;45.264;5.468;2023-04-15T04:59:50;7.47;;;5.50;;
13461;SDS011;6803;45.264;5.468;2023-04-15T05:02:22;10.40;;;6.43;;
13461;SDS011;6803;45.264;5.468;2023-04-15T05:04:54;8.23;;;6.20;;
13461;SDS011;6803;45.264;5.468;2023-04-15T05:07:26;8.57;;;5.60;;
13461;SDS011;6803;45.264;5.468;2023-04-15T05:09:57;8.03;;;6.57;;
13461;SDS011;6803;45.264;5.468;2023-04-15T05:12:28;9.73;;;6.10;;
13461;SDS011;6803;45.264;5.468;2023-04-15T05:14:59;8.50;;;6.30;;
13461;SDS011;6803;45.264;5.468;2023-04-15T05:17:29;7.33;;;5.97;;
13461;SDS011;6803;45.264;5.468;2023-04-15T05:20:02;7.17;;;5.57;;
13461;SDS011;6803;45.264;5.468;2023-04-15T05:22:34;6.87;;;5.53;;
13461;SDS011;6803;45.264;5.468;2023-04-15T05:25:06;6.67;;;5.37;;
13461;SDS011;6803;45.264;5.468;2023-04-15T05:27:37;6.73;;;5.30;;
13461;SDS011;6803;45.264;5.468;2023-04-15T05:30:09;6.67;;;4.53;;
13461;SDS011;6803;45.264;5.468;2023-04-15T05:32:40;157.83;;;11.20;;
13461;SDS011;6803;45.264;5.468;2023-04-15T05:35:11;525.63;;;30.10;;
13461;SDS011;6803;45.264;5.468;2023-04-15T05:37:42;617.57;;;30.50;;
13461;SDS011;6803;45.264;5.468;2023-04-15T05:40:14;210.73;;;14.83;;
13461;SDS011;6803;45.264;5.468;2023-04-15T05:42:45;418.73;;;20.17;;
13461;SDS011;6803;45.264;5.468;2023-04-15T05:45:16;794.40;;;33.67;;
13461;SDS011;6803;45.264;5.468;2023-04-15T05:47:47;413.27;;;20.17;;
13461;SDS011;6803;45.264;5.468;2023-04-15T05:50:19;367.20;;;19.83;;
13461;SDS011;6803;45.264;5.468;2023-04-15T05:52:50;811.40;;;41.73;;
13461;SDS011;6803;45.264;5.468;2023-04-15T05:55:21;742.63;;;33.20;;
13461;SDS011;6803;45.264;5.468;2023-04-15T05:57:52;191.23;;;16.37;;
13461;SDS011;6803;45.264;5.468;2023-04-15T06:00:24;126.67;;;12.20;;
13461;SDS011;6803;45.264;5.468;2023-04-15T06:02:56;51.80;;;11.97;;
13461;SDS011;6803;45.264;5.468;2023-04-15T06:05:28;51.00;;;9.00;;
13461;SDS011;6803;45.264;5.468;2023-04-15T06:08:03;166.75;;;18.05;;
13461;SDS011;6803;45.264;5.468;2023-04-15T06:10:35;12.03;;;8.30;;
13461;SDS011;6803;45.264;5.468;2023-04-15T06:13:07;10.50;;;7.80;;
13461;SDS011;6803;45.264;5.468;2023-04-15T06:18:15;10.90;;;7.07;;
13461;SDS011;6803;45.264;5.468;2023-04-15T06:20:47;9.03;;;6.93;;
13461;SDS011;6803;45.264;5.468;2023-04-15T06:23:18;7.80;;;5.83;;
13461;SDS011;6803;45.264;5.468;2023-04-15T06:25:58;7.67;;;5.70;;
13461;SDS011;6803;45.264;5.468;2023-04-15T06:30:59;7.13;;;5.43;;
13461;SDS011;6803;45.264;5.468;2023-04-15T06:33:31;6.53;;;4.80;;
13461;SDS011;6803;45.264;5.468;2023-04-15T06:36:02;7.67;;;5.83;;
13461;SDS011;6803;45.264;5.468;2023-04-15T06:38:33;8.90;;;6.30;;
13461;SDS011;6803;45.264;5.468;2023-04-15T06:41:04;9.30;;;6.83;;
13461;SDS011;6803;45.264;5.468;2023-04-15T06:43:36;199.27;;;15.97;;
13461;SDS011;6803;45.264;5.468;2023-04-15T06:46:07;572.60;;;26.60;;
13461;SDS011;6803;45.264;5.468;2023-04-15T06:48:38;689.93;;;29.90;;
13461;SDS011;6803;45.264;5.468;2023-04-15T06:51:10;599.37;;;28.20;;
13461;SDS011;6803;45.264;5.468;2023-04-15T06:53:42;771.20;;;30.77;;
13461;SDS011;6803;45.264;5.468;2023-04-15T06:56:13;744.63;;;27.37;;
13461;SDS011;6803;45.264;5.468;2023-04-15T06:58:44;214.40;;;17.83;;
13461;SDS011;6803;45.264;5.468;2023-04-15T07:01:16;106.80;;;11.57;;
13461;SDS011;6803;45.264;5.468;2023-04-15T07:03:48;179.47;;;13.03;;
13461;SDS011;6803;45.264;5.468;2023-04-15T07:06:19;22.20;;;9.07;;
13461;SDS011;6803;45.264;5.468;2023-04-15T07:08:50;11.67;;;7.80;;
13461;SDS011;6803;45.264;5.468;2023-04-15T07:11:22;13.43;;;8.13;;
13461;SDS011;6803;45.264;5.468;2023-04-15T07:13:56;54.73;;;9.67;;
13461;SDS011;6803;45.264;5.468;2023-04-15T07:16:28;12.30;;;8.47;;
13461;SDS011;6803;45.264;5.468;2023-04-15T07:18:59;10.27;;;8.63;;
13461;SDS011;6803;45.264;5.468;2023-04-15T07:21:31;10.27;;;7.73;;
13461;SDS011;6803;45.264;5.468;2023-04-15T07:24:02;10.40;;;7.70;;
13461;SDS011;6803;45.264;5.468;2023-04-15T07:26:34;5.90;;;4.67;;
13461;SDS011;6803;45.264;5.468;2023-04-15T07:29:05;2.70;;;1.77;;
13461;SDS011;6803;45.264;5.468;2023-04-15T07:31:38;2.53;;;1.40;;
13461;SDS011;6803;45.264;5.468;2023-04-15T07:34:11;1.00;;;1.00;;
13461;SDS011;6803;45.264;5.468;2023-04-15T07:36:45;1.40;;;0.87;;
13461;SDS011;6803;45.264;5.468;2023-04-15T07:39:20;3.47;;;0.97;;
13461;SDS011;6803;45.264;5.468;2023-04-15T07:41:53;1.45;;;0.93;;
13461;SDS011;6803;45.264;5.468;2023-04-15T07:44:26;0.97;;;0.87;;
13461;SDS011;6803;45.264;5.468;2023-04-15T07:47:00;2.53;;;0.97;;
13461;SDS011;6803;45.264;5.468;2023-04-15T07:49:34;0.70;;;0.70;;
13461;SDS011;6803;45.264;5.468;2023-04-15T07:52:07;1.90;;;0.87;;
13461;SDS011;6803;45.264;5.468;2023-04-15T07:54:40;2.00;;;0.93;;
13461;SDS011;6803;45.264;5.468;2023-04-15T07:57:13;6.33;;;1.00;;
13461;SDS011;6803;45.264;5.468;2023-04-15T07:59:46;1.40;;;1.30;;
13461;SDS011;6803;45.264;5.468;2023-04-15T08:02:21;5.90;;;1.60;;
13461;SDS011;6803;45.264;5.468;2023-04-15T08:05:01;1.83;;;1.23;;
13461;SDS011;6803;45.264;5.468;2023-04-15T08:07:36;2.53;;;1.30;;
13461;SDS011;6803;45.264;5.468;2023-04-15T08:10:09;1.50;;;0.90;;
13461;SDS011;6803;45.264;5.468;2023-04-15T08:12:41;2.00;;;1.57;;
13461;SDS011;6803;45.264;5.468;2023-04-15T08:15:17;3.27;;;1.53;;
13461;SDS011;6803;45.264;5.468;2023-04-15T08:17:50;2.90;;;1.50;;
13461;SDS011;6803;45.264;5.468;2023-04-15T08:20:23;3.57;;;1.40;;
13461;SDS011;6803;45.264;5.468;2023-04-15T08:22:56;7.57;;;1.50;;
13461;SDS011;6803;45.264;5.468;2023-04-15T08:25:28;1.57;;;1.17;;
13461;SDS011;6803;45.264;5.468;2023-04-15T08:28:03;3.30;;;0.90;;
13461;SDS011;6803;45.264;5.468;2023-04-15T08:30:35;2.57;;;1.10;;
13461;SDS011;6803;45.264;5.468;2023-04-15T08:35:43;4.47;;;1.10;;
13461;SDS011;6803;45.264;5.468;2023-04-15T08:38:15;1.50;;;1.30;;
13461;SDS011;6803;45.264;5.468;2023-04-15T08:40:47;1.73;;;0.97;;
13461;SDS011;6803;45.264;5.468;2023-04-15T08:43:20;1.37;;;0.90;;
13461;SDS011;6803;45.264;5.468;2023-04-15T08:45:54;1.30;;;0.70;;
13461;SDS011;6803;45.264;5.468;2023-04-15T08:48:28;3.93;;;0.87;;
13461;SDS011;6803;45.264;5.468;2023-04-15T08:51:01;1.10;;;0.80;;
13461;SDS011;6803;45.264;5.468;2023-04-15T08:53:33;1.40;;;0.93;;
13461;SDS011;6803;45.264;5.468;2023-04-15T08:56:06;2.70;;;1.00;;
13461;SDS011;6803;45.264;5.468;2023-04-15T08:58:38;1.17;;;0.80;;
13461;SDS011;6803;45.264;5.468;2023-04-15T09:01:10;4.97;;;1.20;;
13461;SDS011;6803;45.264;5.468;2023-04-15T09:03:41;3.57;;;1.13;;
13461;SDS011;6803;45.264;5.468;2023-04-15T09:06:14;1.60;;;0.83;;
13461;SDS011;6803;45.264;5.468;2023-04-15T09:08:48;1.03;;;0.90;;
13461;SDS011;6803;45.264;5.468;2023-04-15T09:11:21;1.27;;;0.80;;
13461;SDS011;6803;45.264;5.468;2023-04-15T09:13:52;0.93;;;0.80;;
13461;SDS011;6803;45.264;5.468;2023-04-15T09:16:25;0.97;;;0.70;;
13461;SDS011;6803;45.264;5.468;2023-04-15T09:19:09;0.93;;;0.50;;
13461;SDS011;6803;45.264;5.468;2023-04-15T09:21:50;0.70;;;0.70;;
13461;SDS011;6803;45.264;5.468;2023-04-15T09:24:28;1.43;;;0.50;;
13461;SDS011;6803;45.264;5.468;2023-04-15T09:27:06;0.60;;;0.60;;
13461;SDS011;6803;45.264;5.468;2023-04-15T09:29:38;3.50;;;0.60;;
13461;SDS011;6803;45.264;5.468;2023-04-15T09:32:12;3.90;;;0.50;;
13461;SDS011;6803;45.264;5.468;2023-04-15T09:34:44;0.40;;;0.40;;
13461;SDS011;6803;45.264;5.468;2023-04-15T09:37:17;1.13;;;0.63;;
13461;SDS011;6803;45.264;5.468;2023-04-15T09:39:51;0.97;;;0.50;;
13461;SDS011;6803;45.264;5.468;2023-04-15T09:42:24;1.07;;;0.53;;
13461;SDS011;6803;45.264;5.468;2023-04-15T09:44:57;0.87;;;0.60;;
13461;SDS011;6803;45.264;5.468;2023-04-15T09:47:39;1.03;;;0.60;;
13461;SDS011;6803;45.264;5.468;2023-04-15T09:50:11;1.77;;;0.60;;
13461;SDS011;6803;45.264;5.468;2023-04-15T09:52:42;7.23;;;0.70;;
13461;SDS011;6803;45.264;5.468;2023-04-15T09:55:14;4.20;;;0.60;;
13461;SDS011;6803;45.264;5.468;2023-04-15T09:57:46;1.67;;;0.70;;
13461;SDS011;6803;45.264;5.468;2023-04-15T10:00:17;2.13;;;0.50;;
13461;SDS011;6803;45.264;5.468;2023-04-15T10:02:49;0.60;;;0.60;;
13461;SDS011;6803;45.264;5.468;2023-04-15T10:05:21;1.83;;;0.80;;
13461;SDS011;6803;45.264;5.468;2023-04-15T10:07:53;1.20;;;0.73;;
13461;SDS011;6803;45.264;5.468;2023-04-15T10:10:24;2.02;;;1.17;;
13461;SDS011;6803;45.264;5.468;2023-04-15T10:12:56;5.33;;;2.13;;
13461;SDS011;6803;45.264;5.468;2023-04-15T10:15:28;3.23;;;0.97;;
13461;SDS011;6803;45.264;5.468;2023-04-15T10:18:01;0.70;;;0.70;;
13461;SDS011;6803;45.264;5.468;2023-04-15T10:20:36;1.13;;;0.70;;
13461;SDS011;6803;45.264;5.468;2023-04-15T10:23:08;1.43;;;0.80;;
13461;SDS011;6803;45.264;5.468;2023-04-15T10:25:41;0.60;;;0.57;;
13461;SDS011;6803;45.264;5.468;2023-04-15T10:28:14;1.47;;;0.47;;
13461;SDS011;6803;45.264;5.468;2023-04-15T10:30:47;1.50;;;0.53;;
13461;SDS011;6803;45.264;5.468;2023-04-15T10:33:20;2.53;;;1.00;;
13461;SDS011;6803;45.264;5.468;2023-04-15T10:35:53;0.77;;;0.60;;
13461;SDS011;6803;45.264;5.468;2023-04-15T10:38:32;1.80;;;0.50;;
13461;SDS011;6803;45.264;5.468;2023-04-15T10:41:17;1.50;;;0.80;;
13461;SDS011;6803;45.264;5.468;2023-04-15T10:43:50;3.40;;;0.70;;
13461;SDS011;6803;45.264;5.468;2023-04-15T10:46:22;2.00;;;0.70;;
13461;SDS011;6803;45.264;5.468;2023-04-15T10:48:56;3.00;;;0.70;;
13461;SDS011;6803;45.264;5.468;2023-04-15T10:51:30;1.43;;;0.60;;
13461;SDS011;6803;45.264;5.468;2023-04-15T10:54:02;0.40;;;0.40;;
13461;SDS011;6803;45.264;5.468;2023-04-15T10:56:34;2.07;;;0.80;;
13461;SDS011;6803;45.264;5.468;2023-04-15T10:59:05;0.70;;;0.40;;
13461;SDS011;6803;45.264;5.468;2023-04-15T11:01:50;1.07;;;0.80;;
13461;SDS011;6803;45.264;5.468;2023-04-15T11:07:36;0.73;;;0.70;;
13461;SDS011;6803;45.264;5.468;2023-04-15T11:13:28;1.40;;;0.80;;
13461;SDS011;6803;45.264;5.468;2023-04-15T11:16:01;1.20;;;0.87;;
13461;SDS011;6803;45.264;5.468;2023-04-15T11:18:33;0.70;;;0.70;;
13461;SDS011;6803;45.264;5.468;2023-04-15T11:21:06;1.67;;;0.70;;
13461;SDS011;6803;45.264;5.468;2023-04-15T11:23:38;0.90;;;0.40;;
13461;SDS011;6803;45.264;5.468;2023-04-15T11:26:11;0.30;;;0.30;;
13461;SDS011;6803;45.264;5.468;2023-04-15T11:28:44;0.40;;;0.40;;
13461;SDS011;6803;45.264;5.468;2023-04-15T11:31:16;0.70;;;0.40;;
13461;SDS011;6803;45.264;5.468;2023-04-15T11:33:53;0.33;;;0.33;;
13461;SDS011;6803;45.264;5.468;2023-04-15T11:36:29;0.40;;;0.40;;
13461;SDS011;6803;45.264;5.468;2023-04-15T11:39:01;0.43;;;0.40;;
13461;SDS011;6803;45.264;5.468;2023-04-15T11:41:34;0.50;;;0.40;;
13461;SDS011;6803;45.264;5.468;2023-04-15T11:44:15;0.67;;;0.40;;
13461;SDS011;6803;45.264;5.468;2023-04-15T11:46:49;3.50;;;0.70;;
13461;SDS011;6803;45.264;5.468;2023-04-15T11:49:26;3.50;;;0.40;;
13461;SDS011;6803;45.264;5.468;2023-04-15T11:52:00;0.40;;;0.40;;
13461;SDS011;6803;45.264;5.468;2023-04-15T11:54:33;0.47;;;0.47;;
13461;SDS011;6803;45.264;5.468;2023-04-15T11:57:05;0.77;;;0.67;;
13461;SDS011;6803;45.264;5.468;2023-04-15T11:59:41;0.43;;;0.40;;
13461;SDS011;6803;45.264;5.468;2023-04-15T12:02:13;0.70;;;0.70;;
13461;SDS011;6803;45.264;5.468;2023-04-15T12:10:30;0.40;;;0.30;;
13461;SDS011;6803;45.264;5.468;2023-04-15T12:13:00;1.63;;;0.50;;
13461;SDS011;6803;45.264;5.468;2023-04-15T12:15:37;2.27;;;0.60;;
13461;SDS011;6803;45.264;5.468;2023-04-15T12:18:16;0.53;;;0.53;;
13461;SDS011;6803;45.264;5.468;2023-04-15T12:20:47;0.50;;;0.50;;
13461;SDS011;6803;45.264;5.468;2023-04-15T12:23:19;0.40;;;0.40;;
13461;SDS011;6803;45.264;5.468;2023-04-15T12:25:54;0.37;;;0.37;;
13461;SDS011;6803;45.264;5.468;2023-04-15T12:28:51;1.90;;;0.72;;
13461;SDS011;6803;45.264;5.468;2023-04-15T12:31:30;2.57;;;0.60;;
13461;SDS011;6803;45.264;5.468;2023-04-15T12:34:02;0.70;;;0.70;;
13461;SDS011;6803;45.264;5.468;2023-04-15T12:36:36;2.13;;;0.90;;
13461;SDS011;6803;45.264;5.468;2023-04-15T12:39:07;0.70;;;0.70;;
13461;SDS011;6803;45.264;5.468;2023-04-15T12:41:38;0.80;;;0.80;;
13461;SDS011;6803;45.264;5.468;2023-04-15T12:47:00;1.23;;;0.90;;
13461;SDS011;6803;45.264;5.468;2023-04-15T12:49:31;1.50;;;0.80;;
13461;SDS011;6803;45.264;5.468;2023-04-15T12:52:02;2.20;;;0.90;;
13461;SDS011;6803;45.264;5.468;2023-04-15T12:54:34;0.60;;;0.60;;
13461;SDS011;6803;45.264;5.468;2023-04-15T12:57:05;1.17;;;0.90;;
13461;SDS011;6803;45.264;5.468;2023-04-15T12:59:36;1.47;;;0.60;;
13461;SDS011;6803;45.264;5.468;2023-04-15T13:02:08;1.63;;;0.70;;
13461;SDS011;6803;45.264;5.468;2023-04-15T13:04:39;1.60;;;0.73;;
13461;SDS011;6803;45.264;5.468;2023-04-15T13:07:11;1.10;;;0.80;;
13461;SDS011;6803;45.264;5.468;2023-04-15T13:09:42;1.67;;;0.70;;
13461;SDS011;6803;45.264;5.468;2023-04-15T13:12:14;4.03;;;0.70;;
13461;SDS011;6803;45.264;5.468;2023-04-15T13:14:45;0.57;;;0.50;;
13461;SDS011;6803;45.264;5.468;2023-04-15T13:17:17;0.60;;;0.60;;
13461;SDS011;6803;45.264;5.468;2023-04-15T13:19:49;0.50;;;0.50;;
13461;SDS011;6803;45.264;5.468;2023-04-15T13:22:22;0.97;;;0.50;;
13461;SDS011;6803;45.264;5.468;2023-04-15T13:24:54;8.60;;;1.00;;
13461;SDS011;6803;45.264;5.468;2023-04-15T13:27:27;0.40;;;0.40;;
13461;SDS011;6803;45.264;5.468;2023-04-15T13:29:59;1.07;;;0.97;;
13461;SDS011;6803;45.264;5.468;2023-04-15T13:32:32;3.13;;;1.13;;
13461;SDS011;6803;45.264;5.468;2023-04-15T13:35:04;2.25;;;1.55;;
13461;SDS011;6803;45.264;5.468;2023-04-15T13:37:36;1.07;;;0.73;;
13461;SDS011;6803;45.264;5.468;2023-04-15T13:40:09;1.70;;;0.83;;
13461;SDS011;6803;45.264;5.468;2023-04-15T13:42:42;0.23;;;0.23;;
13461;SDS011;6803;45.264;5.468;2023-04-15T13:45:14;0.30;;;0.30;;
13461;SDS011;6803;45.264;5.468;2023-04-15T13:47:47;0.57;;;0.30;;
13461;SDS011;6803;45.264;5.468;2023-04-15T13:50:19;0.20;;;0.20;;
13461;SDS011;6803;45.264;5.468;2023-04-15T13:52:50;0.40;;;0.20;;
13461;SDS011;6803;45.264;5.468;2023-04-15T13:55:22;0.33;;;0.30;;
13461;SDS011;6803;45.264;5.468;2023-04-15T13:57:57;0.20;;;0.20;;
13461;SDS011;6803;45.264;5.468;2023-04-15T14:00:34;0.40;;;0.40;;
13461;SDS011;6803;45.264;5.468;2023-04-15T14:03:05;0.20;;;0.20;;
13461;SDS011;6803;45.264;5.468;2023-04-15T14:05:37;0.50;;;0.30;;
13461;SDS011;6803;45.264;5.468;2023-04-15T14:08:08;0.83;;;0.50;;
13461;SDS011;6803;45.264;5.468;2023-04-15T14:10:39;1.30;;;0.20;;
13461;SDS011;6803;45.264;5.468;2023-04-15T14:13:12;1.33;;;0.77;;
13461;SDS011;6803;45.264;5.468;2023-04-15T14:15:43;3.50;;;1.27;;
13461;SDS011;6803;45.264;5.468;2023-04-15T14:18:14;0.47;;;0.40;;
13461;SDS011;6803;45.264;5.468;2023-04-15T14:20:45;1.70;;;0.50;;
13461;SDS011;6803;45.264;5.468;2023-04-15T14:23:17;3.50;;;0.30;;
13461;SDS011;6803;45.264;5.468;2023-04-15T14:25:47;0.40;;;0.20;;
13461;SDS011;6803;45.264;5.468;2023-04-15T14:28:19;0.30;;;0.30;;
13461;SDS011;6803;45.264;5.468;2023-04-15T14:30:50;0.43;;;0.30;;
13461;SDS011;6803;45.264;5.468;2023-04-15T14:33:21;1.03;;;0.40;;
13461;SDS011;6803;45.264;5.468;2023-04-15T14:35:52;0.50;;;0.40;;
13461;SDS011;6803;45.264;5.468;2023-04-15T14:38:23;0.33;;;0.33;;
13461;SDS011;6803;45.264;5.468;2023-04-15T14:40:55;0.40;;;0.40;;
13461;SDS011;6803;45.264;5.468;2023-04-15T14:43:26;0.43;;;0.43;;
13461;SDS011;6803;45.264;5.468;2023-04-15T14:45:57;0.30;;;0.30;;
13461;SDS011;6803;45.264;5.468;2023-04-15T14:48:29;0.43;;;0.40;;
13461;SDS011;6803;45.264;5.468;2023-04-15T14:51:02;0.40;;;0.40;;
13461;SDS011;6803;45.264;5.468;2023-04-15T14:53:33;0.17;;;0.17;;
13461;SDS011;6803;45.264;5.468;2023-04-15T14:56:04;0.57;;;0.47;;
13461;SDS011;6803;45.264;5.468;2023-04-15T14:58:36;0.43;;;0.43;;
13461;SDS011;6803;45.264;5.468;2023-04-15T15:01:07;0.60;;;0.40;;
13461;SDS011;6803;45.264;5.468;2023-04-15T15:03:38;0.50;;;0.50;;
13461;SDS011;6803;45.264;5.468;2023-04-15T15:06:10;1.30;;;0.57;;
13461;SDS011;6803;45.264;5.468;2023-04-15T15:08:41;0.42;;;0.42;;
13461;SDS011;6803;45.264;5.468;2023-04-15T15:11:12;0.87;;;0.50;;
13461;SDS011;6803;45.264;5.468;2023-04-15T15:13:44;0.73;;;0.67;;
13461;SDS011;6803;45.264;5.468;2023-04-15T15:16:15;0.50;;;0.40;;
13461;SDS011;6803;45.264;5.468;2023-04-15T15:18:46;1.20;;;0.47;;
13461;SDS011;6803;45.264;5.468;2023-04-15T15:21:18;2.57;;;0.60;;
13461;SDS011;6803;45.264;5.468;2023-04-15T15:26:38;0.60;;;0.60;;
13461;SDS011;6803;45.264;5.468;2023-04-15T15:31:45;0.63;;;0.50;;
13461;SDS011;6803;45.264;5.468;2023-04-15T15:36:54;0.43;;;0.43;;
13461;SDS011;6803;45.264;5.468;2023-04-15T15:39:25;0.57;;;0.57;;
13461;SDS011;6803;45.264;5.468;2023-04-15T15:41:57;4.23;;;1.70;;
13461;SDS011;6803;45.264;5.468;2023-04-15T15:47:05;0.73;;;0.73;;
13461;SDS011;6803;45.264;5.468;2023-04-15T15:49:37;0.60;;;0.60;;
13461;SDS011;6803;45.264;5.468;2023-04-15T15:52:08;1.00;;;0.70;;
13461;SDS011;6803;45.264;5.468;2023-04-15T15:54:39;1.00;;;0.70;;
13461;SDS011;6803;45.264;5.468;2023-04-15T15:57:10;0.73;;;0.73;;
13461;SDS011;6803;45.264;5.468;2023-04-15T15:59:42;0.60;;;0.60;;